Time;durP1;ratioP1;P1;durP2;ratioP2;P2;SDS_P1;SDS_P2;PMS_P1;PMS_P2;Temp;Humidity;BMP_temperature;BMP_pressure;BME280_temperature;BME280_humidity;BME280_pressure;Samples;Min_cycle;Max_cycle;Signal;HPM_P1;HPM_P2
2022/02/05 00:02:16;;;;;;;;;11.50;11.25;;;;;7.63;58.63;101791.91;5040934;28;45473;-40
2022/02/05 00:04:42;;;;;;;;;14.75;10.75;;;;;7.63;58.80;101798.03;5052837;28;45499;-40
2022/02/05 00:07:09;;;;;;;;;8.00;8.00;;;;;7.62;58.56;101793.66;5051962;28;47344;-40
2022/02/05 00:40:05;;;;;;;;;10.50;9.25;;;;;7.47;58.54;101802.16;5038571;28;45453;-40
2022/02/05 00:42:37;;;;;;;;;11.00;11.00;;;;;7.46;58.85;101796.91;5049440;28;45314;-40
2022/02/05 00:45:07;;;;;;;;;14.50;10.75;;;;;7.45;58.85;101796.00;5046877;28;45331;-40
2022/02/05 00:47:33;;;;;;;;;10.50;9.75;;;;;7.45;58.81;101796.00;5047684;28;45575;-40
2022/02/05 00:50:00;;;;;;;;;14.75;13.00;;;;;7.45;58.78;101796.00;5053026;28;47133;-40
2022/02/05 00:52:27;;;;;;;;;12.00;9.75;;;;;7.44;58.95;101804.69;5045048;28;45361;-40
2022/02/05 00:55:01;;;;;;;;;11.50;10.75;;;;;7.42;59.02;101793.34;5039146;28;45672;-40
2022/02/05 00:59:52;;;;;;;;;11.50;10.25;;;;;7.40;58.82;101796.78;5052266;28;45977;-41
2022/02/05 01:02:17;;;;;;;;;17.25;12.00;;;;;7.40;58.85;101796.78;5039979;28;45307;-40
2022/02/05 01:04:43;;;;;;;;;11.50;10.50;;;;;7.38;58.79;101796.75;5045411;28;45358;-40
2022/02/05 01:07:08;;;;;;;;;11.25;11.00;;;;;7.36;59.03;101793.25;5050601;28;45507;-40
2022/02/05 01:09:34;;;;;;;;;15.50;10.75;;;;;7.36;58.95;101808.94;5041744;28;46016;-40
2022/02/05 01:12:01;;;;;;;;;14.25;10.25;;;;;7.34;59.00;101807.16;5039876;28;45350;-40
2022/02/05 01:14:31;;;;;;;;;6.00;5.00;;;;;7.32;58.97;101808.00;5052799;28;45336;-40
2022/02/05 01:22:08;;;;;;;;;12.75;11.50;;;;;7.27;58.95;101816.63;5053004;28;45310;-40
2022/02/05 01:24:35;;;;;;;;;13.25;11.50;;;;;7.25;58.92;101819.22;5049335;28;45294;-40
2022/02/05 01:27:09;;;;;;;;;11.75;9.75;;;;;7.24;58.89;101824.41;5040864;28;45557;-40
2022/02/05 01:32:08;;;;;;;;;9.75;9.00;;;;;7.17;59.15;101831.28;5045805;28;45450;-40
2022/02/05 01:34:48;;;;;;;;;14.00;9.75;;;;;7.20;58.97;101843.53;5047120;28;45352;-40
2022/02/05 02:11:53;;;;;;;;;15.75;14.50;;;;;6.89;59.12;101876.94;5041037;28;45232;-40
2022/02/05 02:22:16;;;;;;;;;17.00;10.25;;;;;6.69;59.34;101879.16;5055739;28;45712;-40
2022/02/05 02:28:02;;;;;;;;;9.75;9.25;;;;;6.65;59.23;101891.28;5042885;28;45292;-40
2022/02/05 02:32:32;;;;;;;;;17.00;14.00;;;;;6.59;59.36;101892.03;5050381;28;45249;-40
2022/02/05 02:35:05;;;;;;;;;14.50;10.75;;;;;6.57;59.31;101888.50;5048746;28;45378;-40
2022/02/05 02:37:37;;;;;;;;;15.75;15.00;;;;;6.53;59.19;101896.25;5052860;28;45171;-40
2022/02/05 02:40:12;;;;;;;;;14.50;11.25;;;;;6.53;59.33;101902.38;5055363;28;45346;-40
2022/02/05 02:42:43;;;;;;;;;14.25;12.50;;;;;6.48;59.26;101897.03;5053458;28;46067;-40
2022/02/05 02:45:09;;;;;;;;;14.75;14.75;;;;;6.47;59.15;101889.16;5041410;28;45397;-39
2022/02/05 02:47:34;;;;;;;;;16.00;15.00;;;;;6.45;59.34;101902.19;5042126;28;45311;-40
2022/02/05 02:50:06;;;;;;;;;10.50;10.50;;;;;6.44;59.18;101899.53;5055194;28;45609;-40
2022/02/05 02:58:04;;;;;;;;;10.75;10.25;;;;;6.37;59.34;101905.50;5054527;28;45238;-39
2022/02/05 03:00:29;;;;;;;;;13.50;11.25;;;;;6.36;59.40;101896.75;5041610;28;46407;-39
2022/02/05 03:02:55;;;;;;;;;12.75;10.25;;;;;6.34;59.28;101901.09;5044835;28;48210;-39
2022/02/05 03:05:21;;;;;;;;;14.50;12.00;;;;;6.34;59.36;101901.97;5050536;28;45375;-40
2022/02/05 03:07:47;;;;;;;;;14.00;10.75;;;;;6.31;59.19;101901.91;5055193;28;45301;-39
2022/02/05 03:10:13;;;;;;;;;8.50;8.25;;;;;6.32;59.43;101906.25;5044359;28;45431;-39
2022/02/05 03:12:39;;;;;;;;;11.00;10.25;;;;;6.32;59.41;101910.59;5046047;28;47102;-39
2022/02/05 03:15:06;;;;;;;;;14.00;9.75;;;;;6.31;59.37;101911.44;5049947;28;45169;-40
2022/02/05 03:17:38;;;;;;;;;17.25;10.75;;;;;6.30;59.45;101910.59;5055003;28;45466;-40
2022/02/05 03:20:05;;;;;;;;;13.25;13.25;;;;;6.29;59.46;101920.97;5054850;28;45181;-39
2022/02/05 03:22:30;;;;;;;;;12.75;11.50;;;;;6.28;59.28;101916.63;5046739;27;47405;-39
2022/02/05 03:24:56;;;;;;;;;11.00;11.00;;;;;6.28;59.45;101927.06;5047781;28;45276;-40
2022/02/05 03:27:22;;;;;;;;;14.50;12.00;;;;;6.27;59.45;101920.94;5053582;28;45243;-40
2022/02/05 03:29:49;;;;;;;;;11.00;10.00;;;;;6.27;59.48;101927.91;5040187;28;45461;-40
2022/02/05 03:32:16;;;;;;;;;11.50;9.50;;;;;6.25;59.32;101933.09;5048203;28;46218;-40
2022/02/05 03:34:42;;;;;;;;;9.00;9.00;;;;;6.23;59.34;101931.31;5046127;28;45357;-39
2022/02/05 03:37:07;;;;;;;;;10.50;9.75;;;;;6.22;59.31;101935.63;5048686;28;45402;-39
2022/02/05 03:39:33;;;;;;;;;12.25;11.50;;;;;6.21;59.60;101936.47;5047646;28;45371;-40
2022/02/05 03:41:59;;;;;;;;;12.00;8.50;;;;;6.16;59.38;101933.75;5053568;28;46369;-39
2022/02/05 03:44:25;;;;;;;;;5.00;5.00;;;;;6.16;59.56;101938.09;5054582;28;45301;-40
2022/02/05 03:46:52;;;;;;;;;8.50;7.25;;;;;6.13;59.45;101940.63;5048605;28;45521;-39
2022/02/05 03:49:19;;;;;;;;;11.00;9.50;;;;;6.12;59.54;101933.66;5047525;28;45456;-40
2022/02/05 03:51:46;;;;;;;;;13.50;11.25;;;;;6.11;59.39;101947.53;5052213;28;45321;-39
2022/02/05 03:54:13;;;;;;;;;8.25;8.25;;;;;6.11;59.47;101955.38;5038352;28;45407;-40
2022/02/05 03:56:38;;;;;;;;;9.75;7.25;;;;;6.10;59.38;101956.22;5046113;28;45216;-39
2022/02/05 03:59:04;;;;;;;;;11.25;9.00;;;;;6.07;59.74;101949.19;5040605;28;45247;-40
2022/02/05 04:01:29;;;;;;;;;10.25;8.00;;;;;6.08;59.19;101961.41;5040446;28;46185;-39
2022/02/05 04:03:54;;;;;;;;;10.25;10.00;;;;;6.08;59.49;101955.31;5052367;28;45371;-40
2022/02/05 04:06:20;;;;;;;;;9.75;8.50;;;;;6.04;59.48;101950.84;5046676;28;46075;-40
2022/02/05 04:08:47;;;;;;;;;16.75;13.25;;;;;6.06;59.50;101957.88;5048363;28;45441;-40
2022/02/05 04:11:58;;;;;;;;;19.25;14.75;;;;;6.05;59.40;101953.50;5041892;28;46057;-40
2022/02/05 04:16:47;;;;;;;;;15.00;15.00;;;;;6.02;59.28;101966.47;5053134;28;45316;-40
2022/02/05 04:19:15;;;;;;;;;18.50;14.00;;;;;5.96;59.39;101956.75;5047240;28;45375;-39
2022/02/05 04:21:40;;;;;;;;;15.75;14.75;;;;;6.00;59.66;101957.75;5047921;28;45293;-39
2022/02/05 04:24:06;;;;;;;;;14.00;11.00;;;;;5.97;59.49;101961.09;5053622;28;45260;-40
2022/02/05 04:26:32;;;;;;;;;12.00;10.00;;;;;5.97;59.43;101955.88;5052512;28;45219;-40
2022/02/05 04:28:57;;;;;;;;;13.75;12.75;;;;;5.96;59.36;101953.25;5044853;28;45291;-39
2022/02/05 04:31:23;;;;;;;;;14.50;10.00;;;;;5.93;59.62;101950.56;5047530;28;45800;-40
2022/02/05 04:33:48;;;;;;;;;8.50;8.25;;;;;5.90;59.35;101964.44;5053686;28;45382;-39
2022/02/05 04:36:15;;;;;;;;;12.00;9.00;;;;;5.89;59.46;101967.88;5052383;28;45342;-39
2022/02/05 04:38:43;;;;;;;;;8.50;8.25;;;;;5.85;59.59;101960.81;5047128;28;45332;-39
2022/02/05 04:41:15;;;;;;;;;15.00;10.00;;;;;5.84;59.69;101964.28;5046312;28;46307;-39
2022/02/05 04:49:12;;;;;;;;;9.75;8.00;;;;;5.77;59.74;101965.81;5050854;28;45361;-39
2022/02/05 05:10:40;;;;;;;;;9.25;7.25;;;;;5.55;59.72;101972.22;5042221;28;45336;-40
2022/02/05 05:13:12;;;;;;;;;11.25;7.50;;;;;5.49;60.07;101962.50;5027645;28;46675;-39
2022/02/05 05:21:01;;;;;;;;;2.50;2.00;;;;;5.41;59.66;101966.66;5027290;28;45350;-39
2022/02/05 05:23:27;;;;;;;;;7.75;6.25;;;;;5.36;59.86;101965.66;5058183;28;46045;-39
2022/02/05 05:25:52;;;;;;;;;7.50;6.00;;;;;5.32;59.83;101977.72;5053788;28;45332;-40
2022/02/05 05:28:18;;;;;;;;;12.75;8.00;;;;;5.24;59.87;101974.00;5051073;28;45389;-39
2022/02/05 05:30:43;;;;;;;;;10.75;7.00;;;;;5.22;60.48;101980.91;5059469;28;45145;-39
2022/02/05 05:33:08;;;;;;;;;9.00;7.75;;;;;5.19;59.84;101970.38;5059739;28;45209;-40
2022/02/05 05:35:34;;;;;;;;;14.75;11.00;;;;;5.15;59.80;101976.38;5052141;28;45299;-39
2022/02/05 05:37:59;;;;;;;;;10.50;9.00;;;;;5.11;59.97;101983.22;5053009;28;45330;-40
2022/02/05 05:40:25;;;;;;;;;9.25;8.00;;;;;5.11;59.70;101985.81;5059207;28;45269;-39
2022/02/05 05:43:00;;;;;;;;;10.25;8.50;;;;;5.10;59.69;101983.19;5058916;28;45272;-39
2022/02/05 05:45:38;;;;;;;;;7.25;6.00;;;;;5.07;59.67;101986.56;5055167;28;45287;-39
2022/02/05 05:48:11;;;;;;;;;12.25;8.25;;;;;5.03;60.12;101979.50;5052792;28;45311;-39
2022/02/05 05:53:10;;;;;;;;;6.75;6.75;;;;;5.02;59.72;101990.78;5051257;28;45419;-40
2022/02/05 05:55:43;;;;;;;;;11.00;7.50;;;;;4.99;60.07;101982.84;5045907;28;45153;-39
2022/02/05 05:58:09;;;;;;;;;11.75;11.75;;;;;4.97;59.94;101990.63;5059259;28;45413;-39
2022/02/05 06:00:34;;;;;;;;;10.50;8.00;;;;;4.99;60.00;101986.38;5045678;28;45372;-39
2022/02/05 06:03:03;;;;;;;;;9.25;9.25;;;;;4.99;59.70;101980.25;5050996;28;46114;-39
2022/02/05 06:05:28;;;;;;;;;9.75;8.00;;;;;4.99;60.09;101988.97;5053507;28;45390;-40
2022/02/05 06:07:54;;;;;;;;;8.25;7.50;;;;;4.91;59.91;101963.53;5045769;28;45346;-39
2022/02/05 06:10:19;;;;;;;;;8.00;8.00;;;;;4.98;60.10;101983.69;5048858;28;45365;-39
2022/02/05 06:12:44;;;;;;;;;11.75;9.50;;;;;5.00;59.78;101982.03;5051209;28;45659;-39
2022/02/05 06:15:10;;;;;;;;;7.00;6.50;;;;;4.98;59.85;101984.59;5053661;28;46697;-40
2022/02/05 06:17:36;;;;;;;;;8.00;8.00;;;;;5.00;60.00;101992.44;5059179;28;45437;-42
2022/02/05 06:20:03;;;;;;;;;8.00;8.00;;;;;5.00;59.84;101998.53;5058655;28;45261;-40
2022/02/05 06:22:28;;;;;;;;;11.25;8.75;;;;;5.01;59.90;102002.03;5052223;28;47699;-39
2022/02/05 06:24:53;;;;;;;;;7.75;7.75;;;;;4.98;60.07;102004.53;5052811;28;45392;-40
2022/02/05 06:27:19;;;;;;;;;8.50;7.25;;;;;4.98;60.20;102004.53;5044217;28;45294;-40
2022/02/05 06:29:44;;;;;;;;;6.75;4.50;;;;;5.00;59.87;102008.94;5045764;28;45297;-39
2022/02/05 06:32:09;;;;;;;;;8.50;6.75;;;;;4.98;59.94;102002.84;5045469;28;45224;-39
2022/02/05 06:34:35;;;;;;;;;8.50;8.50;;;;;5.01;59.96;102013.31;5054786;28;45238;-39
2022/02/05 06:37:00;;;;;;;;;10.75;8.50;;;;;5.03;60.04;102019.47;5049219;28;45368;-39
2022/02/05 06:39:25;;;;;;;;;7.75;7.00;;;;;5.02;60.11;102017.72;5049386;28;45328;-40
2022/02/05 06:41:51;;;;;;;;;9.75;7.75;;;;;5.01;60.20;102018.53;5054986;28;45263;-39
2022/02/05 06:44:18;;;;;;;;;16.75;9.00;;;;;5.03;59.85;102024.69;5055402;28;45226;-39
2022/02/05 06:46:43;;;;;;;;;12.00;8.00;;;;;5.00;59.89;102021.09;5029130;28;45370;-40
2022/02/05 06:49:09;;;;;;;;;7.00;6.50;;;;;5.04;60.12;102025.56;5054181;28;45545;-40
2022/02/05 06:51:35;;;;;;;;;10.25;7.00;;;;;5.05;60.07;102028.19;5048662;28;45290;-40
2022/02/05 06:54:00;;;;;;;;;11.00;6.50;;;;;5.06;60.14;102034.31;5041262;28;45417;-40
2022/02/05 06:56:26;;;;;;;;;8.75;6.25;;;;;5.07;59.92;102036.09;5044825;28;45470;-39
2022/02/05 06:58:51;;;;;;;;;8.75;7.00;;;;;5.07;60.05;102041.31;5051125;28;45427;-40
2022/02/05 07:01:17;;;;;;;;;7.75;7.75;;;;;5.06;60.01;102039.53;5041464;28;46020;-39
2022/02/05 07:03:42;;;;;;;;;12.50;7.00;;;;;5.03;59.98;102036.81;5052754;28;45316;-39
2022/02/05 07:06:08;;;;;;;;;10.00;8.50;;;;;4.99;60.35;102034.97;5044249;28;45184;-40
2022/02/05 07:08:33;;;;;;;;;10.50;6.75;;;;;4.95;60.11;102034.00;5041947;28;45356;-40
2022/02/05 07:10:59;;;;;;;;;14.25;12.75;;;;;5.07;60.16;102050.81;5043676;28;46279;-39
2022/02/05 07:13:24;;;;;;;;;13.25;8.25;;;;;5.02;59.89;102056.78;5052207;28;45259;-40
2022/02/05 07:19:13;;;;;;;;;11.25;9.00;;;;;5.07;60.19;102079.47;5051007;28;45196;-39
2022/02/05 07:21:10;;;;;;;;;7.00;7.00;;;;;5.03;60.10;102070.69;5025418;28;45485;-40
2022/02/05 07:31:52;;;;;;;;;7.00;7.00;;;;;4.94;60.09;102086.06;5047917;28;45357;-40
2022/02/05 07:34:20;;;;;;;;;8.75;7.50;;;;;4.95;60.21;102093.03;5051946;28;45257;-40
2022/02/05 07:36:48;;;;;;;;;11.75;10.75;;;;;4.92;60.31;102086.00;5054641;28;45329;-40
2022/02/05 07:39:13;;;;;;;;;14.50;10.25;;;;;4.92;60.15;102087.72;5050287;28;45540;-40
2022/02/05 07:41:40;;;;;;;;;11.75;9.50;;;;;4.90;60.33;102079.00;5047461;28;47418;-40
2022/02/05 07:44:12;;;;;;;;;12.50;11.00;;;;;4.93;60.45;102089.50;5050187;28;45323;-39
2022/02/05 07:46:38;;;;;;;;;8.25;7.25;;;;;4.93;60.24;102084.28;5054499;28;45278;-41
2022/02/05 07:49:05;;;;;;;;;7.25;6.75;;;;;4.93;60.52;102074.75;5049036;28;45520;-39
2022/02/05 07:51:30;;;;;;;;;9.75;7.75;;;;;4.96;60.24;102081.78;5040496;28;45232;-39
2022/02/05 07:53:55;;;;;;;;;11.00;10.75;;;;;4.95;60.62;102087.84;5040413;28;45402;-39
2022/02/05 07:56:21;;;;;;;;;7.25;6.50;;;;;4.97;60.37;102099.16;5044286;28;45239;-39
2022/02/05 07:58:46;;;;;;;;;9.50;8.00;;;;;4.99;60.52;102101.00;5050619;28;45552;-39
2022/02/05 08:01:12;;;;;;;;;11.50;8.00;;;;;5.01;60.31;102095.84;5040415;28;46265;-41
2022/02/05 08:03:37;;;;;;;;;11.50;9.75;;;;;5.02;60.36;102101.09;5051303;28;45250;-41
2022/02/05 08:06:05;;;;;;;;;8.50;7.25;;;;;5.04;60.59;102106.34;5047513;28;45233;-41
2022/02/05 08:08:33;;;;;;;;;14.00;12.00;;;;;5.07;60.55;102096.03;5050002;28;45432;-41
2022/02/05 08:11:03;;;;;;;;;13.00;10.75;;;;;5.11;60.02;102108.28;5043119;28;47185;-41
2022/02/05 08:13:32;;;;;;;;;13.50;8.25;;;;;5.15;60.69;102102.34;5050858;28;45346;-47
2022/02/05 08:16:09;;;;;;;;;14.00;10.50;;;;;5.16;60.84;102096.28;5047314;28;45292;-41
2022/02/05 08:18:37;;;;;;;;;11.50;7.75;;;;;5.20;60.80;102102.47;5046780;28;45341;-40
2022/02/05 08:21:03;;;;;;;;;9.00;8.00;;;;;5.20;60.62;102100.75;5052793;28;45385;-47
2022/02/05 08:23:28;;;;;;;;;11.75;9.25;;;;;5.19;60.41;102091.19;5053697;28;45440;-40
2022/02/05 08:25:55;;;;;;;;;11.25;10.50;;;;;5.24;60.65;102096.50;5046764;28;45392;-40
2022/02/05 08:28:21;;;;;;;;;13.00;13.00;;;;;5.25;60.84;102102.63;5042744;28;45385;-40
2022/02/05 08:30:46;;;;;;;;;9.75;9.75;;;;;5.26;60.56;102101.75;5048071;28;46091;-40
2022/02/05 08:33:11;;;;;;;;;13.25;12.50;;;;;5.26;60.89;102102.66;5046772;28;45411;-40
2022/02/05 08:35:37;;;;;;;;;11.00;10.00;;;;;5.27;60.95;102090.50;5051314;28;45636;-41
2022/02/05 08:38:02;;;;;;;;;15.75;10.25;;;;;5.31;60.81;102087.16;5041176;28;45475;-40
2022/02/05 08:40:28;;;;;;;;;11.25;9.00;;;;;5.32;60.79;102082.00;5051013;28;47476;-44
2022/02/05 08:42:54;;;;;;;;;9.25;8.00;;;;;5.33;60.79;102086.38;5038896;28;45398;-40
2022/02/05 08:45:19;;;;;;;;;13.50;12.75;;;;;5.35;60.91;102086.41;5048537;28;45334;-40
2022/02/05 08:47:45;;;;;;;;;12.50;12.50;;;;;5.37;60.91;102088.22;5046628;28;45506;-40
2022/02/05 08:50:10;;;;;;;;;11.50;9.75;;;;;5.28;61.22;102074.03;5052125;28;46406;-40
2022/02/05 08:52:39;;;;;;;;;12.00;11.25;;;;;5.40;61.10;102097.84;5045327;28;45176;-47
2022/02/05 08:55:05;;;;;;;;;17.50;12.00;;;;;5.46;61.13;102100.63;5039894;28;45322;-42
2022/02/05 08:57:34;;;;;;;;;13.25;8.25;;;;;5.48;61.19;102098.94;5051867;28;45324;-40
2022/02/05 09:00:06;;;;;;;;;19.25;13.50;;;;;5.53;60.93;102092.16;5025919;28;46943;-40
2022/02/05 09:07:40;;;;;;;;;16.75;11.50;;;;;5.68;61.03;102093.41;5043485;28;45370;-41
2022/02/05 09:13:06;;;;;;;;;15.00;14.00;;;;;5.81;61.14;102103.34;5044930;28;45170;-41
2022/02/05 09:15:29;;;;;;;;;16.00;14.00;;;;;5.90;61.32;102105.31;5034768;28;45434;-41
2022/02/05 09:17:54;;;;;;;;;9.50;9.50;;;;;5.98;61.15;102114.25;5035473;28;45245;-40
2022/02/05 09:20:19;;;;;;;;;9.75;9.75;;;;;6.06;61.12;102106.63;5039230;28;45304;-40
2022/02/05 09:22:45;;;;;;;;;19.00;13.00;;;;;6.11;61.10;102107.66;5040701;28;45285;-41
2022/02/05 09:25:10;;;;;;;;;16.25;11.00;;;;;6.21;61.24;102115.72;5040143;28;45224;-41
2022/02/05 09:27:40;;;;;;;;;17.75;16.25;;;;;6.26;61.04;102119.31;5037671;28;45225;-40
2022/02/05 09:30:12;;;;;;;;;15.00;13.25;;;;;6.32;61.14;102117.75;5039243;28;46342;-41
2022/02/05 09:32:38;;;;;;;;;16.50;11.00;;;;;6.40;61.13;102117.06;5039388;28;45477;-42
2022/02/05 09:35:04;;;;;;;;;16.00;13.00;;;;;6.48;61.26;102116.41;5039378;28;45631;-42
2022/02/05 09:37:29;;;;;;;;;16.50;13.50;;;;;6.54;61.36;102107.84;5039930;28;45362;-42
2022/02/05 09:39:54;;;;;;;;;8.00;6.50;;;;;6.62;61.20;102108.03;5039370;28;45348;-41
2022/02/05 09:42:20;;;;;;;;;22.25;16.50;;;;;6.71;61.37;102108.25;5038997;28;45310;-41
2022/02/05 09:44:45;;;;;;;;;20.00;17.00;;;;;6.83;61.27;102107.66;5042346;28;45432;-40
2022/02/05 09:47:11;;;;;;;;;18.50;14.50;;;;;6.95;61.24;102101.81;5045005;28;45330;-42
2022/02/05 09:49:37;;;;;;;;;21.25;15.75;;;;;7.06;61.38;102102.06;5041857;28;45464;-41
2022/02/05 09:52:08;;;;;;;;;16.75;16.75;;;;;7.16;61.23;102091.84;5044723;28;45283;-41
2022/02/05 09:54:35;;;;;;;;;18.25;13.25;;;;;7.27;61.27;102093.78;5039502;28;45413;-42
2022/02/05 09:57:01;;;;;;;;;13.75;12.50;;;;;7.39;61.35;102103.63;5043615;28;45347;-41
2022/02/05 09:59:26;;;;;;;;;18.25;14.25;;;;;7.47;61.50;102096.81;5035841;28;46018;-41
2022/02/05 10:02:17;;;;;;;;;14.25;14.25;;;;;7.64;61.52;102112.88;5039193;28;45334;-43
2022/02/05 10:05:08;;;;;;;;;13.75;11.75;;;;;7.80;61.48;102111.44;5052208;28;45220;-42
2022/02/05 10:07:36;;;;;;;;;18.25;13.75;;;;;7.91;61.50;102115.16;5038769;28;46297;-41
2022/02/05 10:10:05;;;;;;;;;16.75;12.25;;;;;8.07;61.66;102115.41;5043893;28;46033;-41
2022/02/05 10:12:31;;;;;;;;;10.75;10.00;;;;;8.20;61.54;102112.16;5054999;28;45362;-41
2022/02/05 10:15:01;;;;;;;;;12.25;11.00;;;;;8.34;61.52;102119.38;5041208;28;45422;-42
2022/02/05 10:17:39;;;;;;;;;13.75;10.00;;;;;8.47;61.37;102108.28;5054097;28;45215;-42
2022/02/05 10:20:06;;;;;;;;;7.00;6.25;;;;;8.64;61.36;102110.28;5042214;28;47208;-42
2022/02/05 10:22:39;;;;;;;;;10.25;6.75;;;;;8.75;61.55;102107.00;5054975;28;45322;-42
2022/02/05 10:25:20;;;;;;;;;6.25;6.25;;;;;8.89;61.46;102115.06;5042175;28;45385;-42
2022/02/05 10:27:49;;;;;;;;;10.50;9.50;;;;;9.04;61.39;102124.00;5040762;28;45228;-41
2022/02/05 10:30:31;;;;;;;;;11.50;8.00;;;;;9.17;61.75;102130.28;5035211;28;45345;-42
2022/02/05 10:32:59;;;;;;;;;11.00;8.25;;;;;9.32;61.32;102114.78;5041938;28;45486;-42
2022/02/05 10:38:02;;;;;;;;;12.00;8.75;;;;;9.59;61.19;102129.94;5054916;28;45307;-42
2022/02/05 10:40:50;;;;;;;;;8.00;7.25;;;;;9.74;61.37;102134.50;5029762;28;45363;-41
2022/02/05 10:43:32;;;;;;;;;8.50;7.00;;;;;9.90;61.54;102129.44;5055268;28;45177;-43
2022/02/05 10:46:01;;;;;;;;;8.25;6.75;;;;;10.02;61.32;102129.53;5055480;28;45133;-41
2022/02/05 10:48:27;;;;;;;;;7.00;5.00;;;;;10.12;61.36;102121.78;5029294;28;45213;-42
2022/02/05 10:50:55;;;;;;;;;7.75;6.00;;;;;10.21;61.19;102125.38;5055654;28;45253;-42
2022/02/05 10:53:32;;;;;;;;;6.25;5.50;;;;;10.35;61.36;102133.38;5041976;28;45408;-42
2022/02/05 10:59:36;;;;;;;;;7.00;6.00;;;;;10.57;61.24;102144.97;5054225;28;45331;-42
2022/02/05 11:07:13;;;;;;;;;5.25;5.25;;;;;10.92;61.07;102140.88;5053539;28;45232;-41
2022/02/05 11:09:58;;;;;;;;;6.00;6.00;;;;;11.02;60.84;102144.44;5044170;28;45446;-40
2022/02/05 11:20:24;;;;;;;;;3.50;2.00;;;;;11.40;60.77;102145.53;5042744;28;45374;-41
2022/02/05 11:22:55;;;;;;;;;6.50;3.75;;;;;11.51;60.58;102139.44;5061953;28;46839;-41
2022/02/05 11:25:21;;;;;;;;;4.50;4.50;;;;;11.60;60.27;102133.31;5061489;28;45353;-41
2022/02/05 11:27:49;;;;;;;;;6.00;4.50;;;;;11.70;60.01;102121.94;5061366;28;45728;-41
2022/02/05 11:30:34;;;;;;;;;6.00;5.00;;;;;11.82;60.33;102136.03;5045996;28;45267;-41
2022/02/05 11:33:28;;;;;;;;;7.25;4.50;;;;;11.89;59.98;102132.53;5041157;28;46211;-41
2022/02/05 11:38:32;;;;;;;;;5.00;4.00;;;;;12.03;59.82;102129.97;5041325;28;45379;-41
2022/02/05 11:40:59;;;;;;;;;7.50;4.00;;;;;12.09;59.74;102132.63;5040918;28;45549;-42
2022/02/05 11:43:35;;;;;;;;;6.50;4.75;;;;;12.14;59.75;102120.31;5040867;28;45439;-41
2022/02/05 11:46:03;;;;;;;;;5.25;3.50;;;;;12.22;59.75;102111.56;5041259;28;45382;-41
2022/02/05 11:48:53;;;;;;;;;4.75;3.75;;;;;12.29;59.50;102106.28;5041204;28;45557;-41
2022/02/05 11:51:30;;;;;;;;;5.00;4.50;;;;;12.39;59.40;102122.09;5040818;28;45277;-44
2022/02/05 11:53:55;;;;;;;;;3.25;2.00;;;;;12.47;59.26;102115.06;5040631;28;45442;-43
2022/02/05 11:56:37;;;;;;;;;5.00;3.00;;;;;12.60;59.18;102111.56;5057704;28;45497;-41
2022/02/05 11:59:03;;;;;;;;;2.50;2.00;;;;;12.76;59.49;102111.53;5053551;28;45399;-41
2022/02/05 12:01:37;;;;;;;;;3.50;3.25;;;;;12.88;59.30;102105.34;5056862;28;45273;-41
2022/02/05 12:04:10;;;;;;;;;5.25;3.50;;;;;12.98;59.28;102107.97;5060958;28;45443;-41
2022/02/05 12:06:47;;;;;;;;;4.75;2.25;;;;;13.12;59.22;102107.06;5051715;28;45294;-42
2022/02/05 12:09:36;;;;;;;;;2.00;2.00;;;;;13.23;58.98;102096.44;5060372;28;45364;-41
2022/02/05 12:12:33;;;;;;;;;5.25;2.00;;;;;13.33;59.09;102095.53;5036160;28;45522;-40
2022/02/05 12:15:17;;;;;;;;;2.00;2.00;;;;;13.39;59.09;102092.91;5029033;28;45429;-41
2022/02/05 12:20:30;;;;;;;;;2.75;2.00;;;;;13.51;58.62;102091.97;5036195;28;45298;-40
2022/02/05 12:25:52;;;;;;;;;1.75;1.75;;;;;13.59;58.70;102084.00;5043933;28;45426;-40
2022/02/05 12:28:41;;;;;;;;;2.00;1.00;;;;;13.53;58.22;102066.41;5045618;28;45609;-41
2022/02/05 12:31:18;;;;;;;;;3.00;1.00;;;;;13.60;58.19;102081.34;5039512;28;45421;-40
2022/02/05 12:33:51;;;;;;;;;1.00;1.00;;;;;13.61;58.06;102080.47;5048756;28;45334;-40
2022/02/05 12:36:35;;;;;;;;;1.00;1.00;;;;;13.59;57.90;102081.38;5053902;28;46589;-40
2022/02/05 12:39:02;;;;;;;;;2.50;2.50;;;;;13.53;57.44;102079.63;5046418;28;45592;-47
2022/02/05 12:41:30;;;;;;;;;6.00;3.00;;;;;13.48;58.00;102076.13;5057515;28;45485;-43
2022/02/05 12:43:58;;;;;;;;;3.75;3.75;;;;;13.43;57.35;102076.19;5058992;28;45440;-49
2022/02/05 12:46:39;;;;;;;;;3.50;2.25;;;;;13.39;57.66;102074.41;5057663;28;46061;-47
2022/02/05 12:49:13;;;;;;;;;4.25;2.00;;;;;13.33;57.57;102064.75;5057626;28;45355;-48
2022/02/05 12:51:43;;;;;;;;;4.25;3.25;;;;;13.30;57.51;102056.81;5057553;28;45689;-40
2022/02/05 12:54:15;;;;;;;;;1.00;1.00;;;;;13.27;56.95;102059.47;5040884;28;45552;-41
2022/02/05 12:56:43;;;;;;;;;4.00;2.25;;;;;13.23;56.80;102057.75;5048949;28;45283;-40
2022/02/05 12:59:14;;;;;;;;;3.00;1.50;;;;;13.24;56.62;102056.84;5055989;28;45524;-40
2022/02/05 13:02:06;;;;;;;;;5.00;2.00;;;;;13.23;56.50;102060.38;5058099;28;45409;-42
2022/02/05 13:04:49;;;;;;;;;2.00;1.00;;;;;13.25;56.78;102055.97;5059355;28;45383;-41
2022/02/05 13:07:18;;;;;;;;;2.00;2.00;;;;;13.26;56.49;102064.78;5029730;28;45367;-40
2022/02/05 13:09:55;;;;;;;;;0.25;0.25;;;;;13.27;56.77;102072.69;5041891;28;45259;-41
2022/02/05 13:12:36;;;;;;;;;1.50;1.50;;;;;13.27;56.18;102067.41;5039422;28;45336;-40
2022/02/05 13:15:26;;;;;;;;;5.00;4.00;;;;;13.29;55.94;102065.63;5044044;28;45613;-41
2022/02/05 13:28:51;;;;;;;;;4.00;2.25;;;;;13.49;55.30;102052.34;5044331;28;46085;-42
2022/02/05 13:34:11;;;;;;;;;1.00;1.00;;;;;13.61;55.03;102054.06;5052630;28;45310;-46
2022/02/05 13:36:47;;;;;;;;;2.50;1.75;;;;;13.71;55.24;102059.28;5039529;28;45188;-46
2022/02/05 13:41:58;;;;;;;;;4.50;3.00;;;;;13.83;54.87;102038.06;5045498;28;45285;-45
2022/02/05 13:44:27;;;;;;;;;4.25;4.25;;;;;13.87;55.30;102036.28;5052627;28;45449;-43
2022/02/05 13:47:06;;;;;;;;;4.00;2.50;;;;;13.92;54.69;102045.94;5043633;28;45375;-45
2022/02/05 13:49:34;;;;;;;;;2.50;1.00;;;;;13.92;54.78;102040.66;5051643;28;46068;-45
2022/02/05 13:52:10;;;;;;;;;1.00;1.00;;;;;13.93;54.97;102031.81;5055690;28;45382;-48
2022/02/05 13:54:41;;;;;;;;;2.50;2.00;;;;;13.94;54.46;102025.66;5041288;28;45604;-49
2022/02/05 13:57:07;;;;;;;;;3.00;1.50;;;;;13.93;54.85;102026.53;5028026;28;45493;-48
2022/02/05 13:59:34;;;;;;;;;1.50;1.00;;;;;13.95;54.47;102021.25;5040485;28;46288;-47
2022/02/05 14:02:12;;;;;;;;;3.75;2.00;;;;;13.97;54.44;102022.09;5048406;28;45737;-49
2022/02/05 14:04:37;;;;;;;;;0.75;0.75;;;;;13.95;53.96;102018.63;5049266;28;45382;-48
2022/02/05 14:07:04;;;;;;;;;2.00;2.00;;;;;13.97;54.12;102014.16;5050756;28;45507;-49
2022/02/05 14:09:35;;;;;;;;;2.75;2.00;;;;;14.00;53.55;102023.84;5035925;28;45503;-41
2022/02/05 14:12:45;;;;;;;;;0.00;0.00;;;;;14.05;53.88;102027.31;5049956;28;45357;-39
2022/02/05 14:15:11;;;;;;;;;2.00;2.00;;;;;14.08;53.87;102041.38;5007701;28;45362;-39
2022/02/05 14:17:36;;;;;;;;;1.00;1.00;;;;;14.10;53.72;102029.06;5036159;28;45185;-38
2022/02/05 14:20:12;;;;;;;;;1.00;0.00;;;;;14.13;53.85;102030.78;5055496;28;46089;-39
2022/02/05 14:22:40;;;;;;;;;2.25;1.00;;;;;14.14;53.26;102019.34;5055754;28;45258;-39
2022/02/05 14:25:16;;;;;;;;;2.00;1.75;;;;;14.15;53.42;102018.44;5050354;28;45531;-39
2022/02/05 14:28:05;;;;;;;;;1.50;1.50;;;;;14.20;53.66;102018.38;5044792;28;45395;-39
2022/02/05 14:30:31;;;;;;;;;2.25;2.00;;;;;14.23;53.74;102013.94;5035957;28;46030;-41
2022/02/05 14:32:59;;;;;;;;;2.00;2.00;;;;;14.26;53.64;102007.75;5055107;28;45383;-40
2022/02/05 14:40:44;;;;;;;;;4.00;1.75;;;;;14.40;53.25;102021.75;5048174;28;45650;-41
2022/02/05 14:43:11;;;;;;;;;3.75;2.00;;;;;14.44;53.32;102026.09;5050351;28;45445;-40
2022/02/05 14:45:37;;;;;;;;;1.75;1.75;;;;;14.46;53.39;102016.38;5042120;28;45573;-40
2022/02/05 14:48:02;;;;;;;;;1.00;1.00;;;;;14.53;53.38;102021.63;5053764;28;45629;-40
2022/02/05 14:50:28;;;;;;;;;1.75;1.75;;;;;14.54;52.69;102011.00;5048665;28;46394;-41
2022/02/05 14:52:53;;;;;;;;;2.75;2.75;;;;;14.59;52.92;102019.78;5049724;28;45240;-41